Time;durP1;ratioP1;P1;durP2;ratioP2;P2;SDS_P1;SDS_P2;PMS_P1;PMS_P2;Temp;Humidity;BMP_temperature;BMP_pressure;BME280_temperature;BME280_humidity;BME280_pressure;Samples;Min_cycle;Max_cycle;Signal;HPM_P1;HPM_P2
2021/12/29 00:00:47;;;;;;;316.75;14.50;;;7.20;99.90;;;;;;5076825;28;20083;-95
2021/12/29 00:03:15;;;;;;;319.75;14.73;;;10.10;99.90;;;;;;5080369;28;20491;-95
2021/12/29 00:05:41;;;;;;;296.08;15.30;;;7.40;99.90;;;;;;5080696;28;20048;-94
2021/12/29 00:08:07;;;;;;;173.32;13.23;;;8.00;99.90;;;;;;5081432;28;20069;-94
2021/12/29 00:10:33;;;;;;;229.70;16.38;;;8.80;99.90;;;;;;5080587;28;20040;-95
2021/12/29 00:12:59;;;;;;;71.22;12.45;;;8.80;99.90;;;;;;5080496;28;20044;-94
2021/12/29 00:15:27;;;;;;;84.72;13.63;;;11.10;99.90;;;;;;5080192;28;20136;-95
2021/12/29 00:17:55;;;;;;;61.97;14.55;;;7.80;99.90;;;;;;5080385;28;20385;-95
2021/12/29 00:20:28;;;;;;;51.17;12.93;;;8.20;99.90;;;;;;5063992;28;20052;-95
2021/12/29 00:22:58;;;;;;;81.50;15.95;;;8.80;99.90;;;;;;5080831;28;20083;-95
2021/12/29 00:25:25;;;;;;;77.35;15.68;;;8.50;99.90;;;;;;5080538;28;20048;-95
2021/12/29 00:27:54;;;;;;;44.80;11.85;;;8.70;99.90;;;;;;5080674;28;20042;-95
2021/12/29 00:30:21;;;;;;;42.53;11.93;;;11.00;99.90;;;;;;5080519;28;20040;-95
2021/12/29 00:32:50;;;;;;;31.17;9.98;;;7.40;99.90;;;;;;5080691;28;20048;-95
2021/12/29 00:35:16;;;;;;;34.55;10.60;;;8.30;99.90;;;;;;5064575;28;20408;-96
2021/12/29 00:37:42;;;;;;;36.60;11.43;;;11.40;99.90;;;;;;5081120;28;20434;-95
2021/12/29 00:40:10;;;;;;;64.75;14.55;;;7.80;99.90;;;;;;5080368;28;20036;-95
2021/12/29 00:42:38;;;;;;;49.30;13.88;;;7.30;99.90;;;;;;5081138;28;20052;-96
2021/12/29 00:45:04;;;;;;;32.20;12.00;;;11.60;99.90;;;;;;5081205;28;20050;-95
2021/12/29 00:47:32;;;;;;;46.40;13.85;;;8.80;99.90;;;;;;5080922;28;20047;-94
2021/12/29 00:49:59;;;;;;;34.42;11.70;;;7.70;99.90;;;;;;5079943;28;20476;-96
2021/12/29 00:52:25;;;;;;;42.10;13.38;;;10.80;99.90;;;;;;5080283;28;20131;-95
2021/12/29 00:54:51;;;;;;;30.92;11.57;;;7.10;99.90;;;;;;5080125;28;20098;-95
2021/12/29 00:57:17;;;;;;;25.25;9.65;;;11.30;99.90;;;;;;5080079;28;20488;-96
2021/12/29 00:59:45;;;;;;;28.63;9.80;;;13.30;99.90;;;;;;5079741;28;20134;-96
2021/12/29 01:02:11;;;;;;;26.60;10.10;;;8.80;99.90;;;;;;5063280;28;20396;-94
2021/12/29 01:04:37;;;;;;;33.83;11.05;;;9.90;99.90;;;;;;5079960;28;20040;-95
2021/12/29 01:07:04;;;;;;;29.13;11.55;;;9.10;99.90;;;;;;5063781;28;20044;-95
2021/12/29 01:09:30;;;;;;;33.28;10.15;;;11.70;99.90;;;;;;5079771;28;20047;-95
2021/12/29 01:11:57;;;;;;;20.38;8.55;;;7.90;99.90;;;;;;5079997;28;20040;-95
2021/12/29 01:14:25;;;;;;;23.98;8.40;;;11.20;99.90;;;;;;5062561;28;20054;-95
2021/12/29 01:16:52;;;;;;;20.60;6.88;;;7.40;99.90;;;;;;5079759;28;20047;-95
2021/12/29 01:19:22;;;;;;;19.10;7.28;;;7.40;99.90;;;;;;5062130;28;20757;-94
2021/12/29 01:21:51;;;;;;;18.55;6.50;;;11.00;99.90;;;;;;5061938;28;20051;-95
2021/12/29 01:24:18;;;;;;;23.73;8.60;;;9.10;99.90;;;;;;5062334;28;20047;-95
2021/12/29 01:26:45;;;;;;;26.35;7.75;;;9.40;99.90;;;;;;5062483;28;20044;-95
2021/12/29 01:29:12;;;;;;;16.25;5.72;;;9.50;99.90;;;;;;5062369;28;20075;-95
2021/12/29 01:31:38;;;;;;;19.85;6.05;;;12.40;99.90;;;;;;5062802;28;20047;-95
2021/12/29 01:34:05;;;;;;;17.45;6.20;;;12.60;99.90;;;;;;5078831;28;20048;-94
2021/12/29 01:36:34;;;;;;;11.35;5.22;;;7.40;99.90;;;;;;5079632;28;20044;-94
2021/12/29 01:39:00;;;;;;;11.23;5.22;;;12.00;99.90;;;;;;5079192;28;20479;-94
2021/12/29 01:41:26;;;;;;;12.85;4.18;;;7.90;99.90;;;;;;5063248;28;20388;-95
2021/12/29 01:43:52;;;;;;;14.95;4.78;;;8.90;99.90;;;;;;5079476;28;20066;-96
2021/12/29 01:46:19;;;;;;;10.75;4.22;;;11.10;99.90;;;;;;5062886;28;20491;-96
2021/12/29 01:48:45;;;;;;;7.97;3.70;;;8.50;99.90;;;;;;5063298;28;20453;-96
2021/12/29 01:51:13;;;;;;;10.27;3.03;;;8.40;99.90;;;;;;5063412;28;20130;-95
2021/12/29 01:53:47;;;;;;;8.07;2.78;;;13.40;99.90;;;;;;5064372;28;20070;-95
2021/12/29 01:56:15;;;;;;;7.22;3.35;;;11.80;99.90;;;;;;5063035;28;20129;-95
2021/12/29 01:58:41;;;;;;;9.25;4.25;;;11.50;99.90;;;;;;5080948;28;20044;-95
2021/12/29 02:01:07;;;;;;;11.80;3.40;;;13.10;99.90;;;;;;5063506;28;20385;-95
2021/12/29 02:03:33;;;;;;;18.30;5.43;;;11.70;99.90;;;;;;5062797;28;20044;-95
2021/12/29 02:05:59;;;;;;;17.08;3.35;;;11.00;99.90;;;;;;5079742;28;20040;-95
2021/12/29 02:08:25;;;;;;;12.70;3.63;;;8.50;99.90;;;;;;5063136;28;20130;-95
2021/12/29 02:10:52;;;;;;;15.70;4.57;;;8.50;99.90;;;;;;5063050;28;20106;-95
2021/12/29 02:13:19;;;;;;;13.57;4.60;;;7.80;99.90;;;;;;5079310;28;20048;-95
2021/12/29 02:15:45;;;;;;;21.45;5.78;;;9.00;99.90;;;;;;5063448;28;20074;-96
2021/12/29 02:18:14;;;;;;;23.70;6.32;;;8.60;99.90;;;;;;5079137;28;20060;-95
2021/12/29 02:20:47;;;;;;;23.45;5.60;;;8.10;99.90;;;;;;5062821;28;20745;-94
2021/12/29 02:23:21;;;;;;;16.90;6.07;;;11.30;99.90;;;;;;5062790;28;20039;-95
2021/12/29 02:25:50;;;;;;;21.33;6.15;;;10.30;99.90;;;;;;5077960;28;20039;-95
2021/12/29 02:28:22;;;;;;;22.52;6.32;;;7.30;99.90;;;;;;5078266;28;20052;-95
2021/12/29 02:30:48;;;;;;;31.55;7.55;;;7.70;99.90;;;;;;5063344;28;20131;-94
2021/12/29 02:33:16;;;;;;;29.10;7.93;;;10.00;99.90;;;;;;5064175;28;20468;-95
2021/12/29 02:35:43;;;;;;;26.52;7.70;;;11.30;99.90;;;;;;5063479;28;20100;-95
2021/12/29 02:38:19;;;;;;;26.45;7.43;;;7.60;99.90;;;;;;5079888;28;20040;-95
2021/12/29 02:40:49;;;;;;;32.13;7.35;;;9.10;99.90;;;;;;5079876;28;20078;-95
2021/12/29 02:43:19;;;;;;;25.63;7.20;;;8.00;99.90;;;;;;5062620;28;20040;-94
2021/12/29 02:45:51;;;;;;;45.08;8.82;;;7.50;99.90;;;;;;5062457;28;20167;-94
2021/12/29 02:48:18;;;;;;;33.03;8.20;;;7.00;99.90;;;;;;5061641;28;20059;-95
2021/12/29 02:50:45;;;;;;;35.13;8.40;;;12.80;99.90;;;;;;5061882;28;20086;-95
2021/12/29 02:53:12;;;;;;;42.42;9.05;;;7.30;99.90;;;;;;5062488;28;20395;-95
2021/12/29 02:55:38;;;;;;;54.90;10.88;;;7.20;99.90;;;;;;5062539;28;20057;-95
2021/12/29 02:58:04;;;;;;;43.03;8.55;;;13.30;99.90;;;;;;5079340;28;20126;-95
2021/12/29 03:00:30;;;;;;;41.08;9.80;;;10.90;99.90;;;;;;5062812;28;20052;-95
2021/12/29 03:02:56;;;;;;;39.08;10.23;;;7.80;99.90;;;;;;5061639;28;20548;-95
2021/12/29 03:05:24;;;;;;;45.22;10.48;;;10.00;99.90;;;;;;5078645;28;20048;-96
2021/12/29 03:07:50;;;;;;;54.58;11.57;;;11.70;99.90;;;;;;5078474;28;20449;-95
2021/12/29 03:10:16;;;;;;;51.28;10.90;;;11.60;99.90;;;;;;5078222;28;20040;-95
2021/12/29 03:12:42;;;;;;;56.10;10.98;;;12.00;99.90;;;;;;5078823;28;20040;-95
2021/12/29 03:15:08;;;;;;;29.42;7.18;;;10.80;99.90;;;;;;5079132;28;20054;-96
2021/12/29 03:17:34;;;;;;;42.92;10.65;;;7.60;99.90;;;;;;5079174;28;20504;-94
2021/12/29 03:20:00;;;;;;;45.50;11.23;;;7.00;99.90;;;;;;5076565;28;20088;-94
2021/12/29 03:22:26;;;;;;;69.45;12.18;;;7.80;99.90;;;;;;5078542;28;20404;-95
2021/12/29 03:24:51;;;;;;;64.00;11.55;;;10.30;99.90;;;;;;5079152;28;20047;-95
2021/12/29 03:27:18;;;;;;;47.55;12.30;;;8.30;99.90;;;;;;5077872;28;20044;-95
2021/12/29 03:29:44;;;;;;;50.92;10.77;;;11.10;99.90;;;;;;5079520;28;20048;-95
2021/12/29 03:32:20;;;;;;;47.97;11.20;;;9.60;99.90;;;;;;5078736;28;20044;-95
2021/12/29 03:34:46;;;;;;;59.85;10.85;;;6.50;99.90;;;;;;5076977;28;20044;-94
2021/12/29 03:37:12;;;;;;;31.85;8.40;;;7.70;99.90;;;;;;5079409;28;20104;-95
2021/12/29 03:39:38;;;;;;;45.67;10.82;;;10.70;99.90;;;;;;5065454;28;20051;-95
2021/12/29 03:42:06;;;;;;;38.00;9.00;;;7.00;99.90;;;;;;5081593;28;20054;-95
2021/12/29 03:44:32;;;;;;;52.42;11.23;;;9.70;99.90;;;;;;5082194;28;20040;-95
2021/12/29 03:46:58;;;;;;;30.98;9.73;;;10.30;99.90;;;;;;5081449;28;20047;-96
2021/12/29 03:49:26;;;;;;;33.70;9.63;;;10.80;99.90;;;;;;5081345;28;20403;-96
2021/12/29 03:51:52;;;;;;;36.13;10.40;;;9.50;99.90;;;;;;5064768;28;20052;-95
2021/12/29 03:54:17;;;;;;;38.35;9.25;;;13.00;99.90;;;;;;5081234;28;20071;-94
2021/12/29 03:56:43;;;;;;;28.70;9.85;;;10.80;99.90;;;;;;5081660;28;20051;-95
2021/12/29 03:59:09;;;;;;;28.10;10.20;;;10.00;99.90;;;;;;5081739;28;20119;-95
2021/12/29 04:01:35;;;;;;;31.23;8.82;;;7.20;99.90;;;;;;5082126;28;20040;-95
2021/12/29 04:04:00;;;;;;;27.67;9.73;;;7.50;99.90;;;;;;5064248;28;20110;-95
2021/12/29 04:06:26;;;;;;;28.00;8.93;;;9.10;99.90;;;;;;5063938;28;20040;-95
2021/12/29 04:08:52;;;;;;;20.67;7.38;;;7.80;99.90;;;;;;5064155;28;20048;-95
2021/12/29 04:11:18;;;;;;;29.38;8.43;;;10.90;99.90;;;;;;5063825;28;20561;-95
2021/12/29 04:13:47;;;;;;;23.25;8.20;;;11.00;99.90;;;;;;5064595;28;20048;-95
2021/12/29 04:19:28;;;;;;;30.85;8.07;;;7.70;99.90;;;;;;5080285;28;20452;-95
2021/12/29 04:21:55;;;;;;;26.23;8.05;;;9.40;99.90;;;;;;5064075;28;20044;-95
2021/12/29 04:24:21;;;;;;;25.15;7.80;;;9.10;99.90;;;;;;5080516;28;20044;-95
2021/12/29 04:26:46;;;;;;;35.17;7.88;;;8.90;99.90;;;;;;5080058;28;20427;-95
2021/12/29 04:29:13;;;;;;;44.05;10.30;;;9.40;99.90;;;;;;5079884;28;20040;-96
2021/12/29 04:31:40;;;;;;;39.70;10.10;;;8.80;99.90;;;;;;5080397;28;20044;-95
2021/12/29 04:34:06;;;;;;;33.45;10.38;;;10.90;99.90;;;;;;5080440;28;20069;-95
2021/12/29 04:36:33;;;;;;;26.08;9.07;;;8.50;99.90;;;;;;5080675;28;20040;-96
2021/12/29 04:38:59;;;;;;;36.75;10.75;;;9.30;99.90;;;;;;5080392;28;20055;-95
2021/12/29 04:41:25;;;;;;;33.92;10.88;;;10.20;99.90;;;;;;5062755;28;20144;-96
2021/12/29 04:43:51;;;;;;;36.00;9.55;;;11.20;99.90;;;;;;5080264;28;20040;-95
2021/12/29 04:46:19;;;;;;;35.70;9.95;;;8.10;99.90;;;;;;5080441;28;20048;-95
2021/12/29 04:48:51;;;;;;;34.25;10.07;;;11.00;99.90;;;;;;5061911;28;20052;-96
2021/12/29 04:51:24;;;;;;;50.03;11.20;;;8.90;99.90;;;;;;5079896;28;20063;-96
2021/12/29 04:53:50;;;;;;;39.47;10.90;;;9.90;99.90;;;;;;5079888;28;20076;-95
2021/12/29 04:56:16;;;;;;;37.10;10.98;;;10.80;99.90;;;;;;5079686;28;20079;-95
2021/12/29 04:58:43;;;;;;;35.33;9.88;;;7.50;99.90;;;;;;5080080;28;20503;-96
2021/12/29 05:01:09;;;;;;;47.10;9.68;;;9.90;99.90;;;;;;5063386;28;20044;-96
2021/12/29 05:03:37;;;;;;;41.25;9.70;;;12.60;99.90;;;;;;5063351;28;20057;-96
2021/12/29 05:08:30;;;;;;;42.85;9.68;;;9.50;99.90;;;;;;5080309;28;20044;-95
2021/12/29 05:11:00;;;;;;;36.88;9.57;;;11.70;99.90;;;;;;5080271;28;20377;-96
2021/12/29 05:13:30;;;;;;;45.47;9.77;;;10.70;99.90;;;;;;5062644;28;20036;-95
2021/12/29 05:15:56;;;;;;;40.83;9.30;;;9.20;99.90;;;;;;5079869;28;20048;-96
2021/12/29 05:18:24;;;;;;;46.60;11.63;;;6.90;99.90;;;;;;5079635;28;20040;-95
2021/12/29 05:20:51;;;;;;;54.40;12.45;;;7.40;99.90;;;;;;5076875;28;20135;-96
2021/12/29 05:23:17;;;;;;;56.88;12.38;;;9.20;99.90;;;;;;5079372;28;20109;-95
2021/12/29 05:25:43;;;;;;;44.08;12.25;;;8.60;99.90;;;;;;5079866;28;20044;-96
2021/12/29 05:28:09;;;;;;;52.25;11.60;;;8.00;99.90;;;;;;5079276;28;20193;-96
2021/12/29 05:30:35;;;;;;;59.15;14.02;;;10.20;99.90;;;;;;5078968;28;20044;-95
2021/12/29 05:33:02;;;;;;;60.40;12.10;;;9.20;99.90;;;;;;5079282;28;20044;-95
2021/12/29 05:35:28;;;;;;;69.78;13.77;;;10.30;99.90;;;;;;5078435;28;20048;-95
2021/12/29 05:37:55;;;;;;;67.75;12.38;;;7.00;99.90;;;;;;5078922;28;20044;-96
2021/12/29 05:40:21;;;;;;;70.80;14.15;;;9.60;99.90;;;;;;5079040;28;20110;-96
2021/12/29 05:42:47;;;;;;;74.82;14.77;;;6.50;99.90;;;;;;5079135;28;20044;-96
2021/12/29 05:45:14;;;;;;;88.13;13.32;;;7.10;99.90;;;;;;5078552;28;20403;-95
2021/12/29 05:47:41;;;;;;;84.50;13.05;;;10.70;99.90;;;;;;5078420;28;20079;-96
2021/12/29 05:50:09;;;;;;;105.18;12.88;;;13.80;99.90;;;;;;5078095;28;20047;-96
2021/12/29 05:52:35;;;;;;;92.82;13.23;;;7.30;99.90;;;;;;5061646;28;20048;-95
2021/12/29 05:55:01;;;;;;;72.47;12.45;;;7.30;99.90;;;;;;5078173;28;20040;-96
2021/12/29 05:57:27;;;;;;;72.35;12.70;;;12.90;99.90;;;;;;5078817;28;20181;-95
2021/12/29 05:59:53;;;;;;;70.93;11.98;;;7.30;99.90;;;;;;5077884;28;20484;-95
2021/12/29 06:02:19;;;;;;;60.08;11.32;;;8.80;99.90;;;;;;5078693;28;20046;-95
2021/12/29 06:04:45;;;;;;;50.67;10.90;;;8.80;99.90;;;;;;5078702;28;20093;-95
2021/12/29 06:07:11;;;;;;;77.88;10.38;;;8.60;99.90;;;;;;5078174;28;20491;-96
2021/12/29 06:09:37;;;;;;;80.32;11.25;;;7.50;99.90;;;;;;5078179;28;20087;-95
2021/12/29 06:12:03;;;;;;;101.10;13.13;;;9.10;99.90;;;;;;5078292;28;20044;-95
2021/12/29 06:14:29;;;;;;;104.45;11.32;;;11.00;99.90;;;;;;5078135;28;20044;-96
2021/12/29 06:16:55;;;;;;;84.85;10.40;;;9.60;99.90;;;;;;5078430;28;20105;-95
2021/12/29 06:19:21;;;;;;;84.43;10.48;;;7.80;99.90;;;;;;5078011;28;20131;-96
2021/12/29 06:21:46;;;;;;;79.93;9.32;;;12.80;99.90;;;;;;5077780;28;20488;-95
2021/12/29 06:24:12;;;;;;;124.60;10.38;;;10.80;99.90;;;;;;5077693;28;20044;-96
2021/12/29 06:26:38;;;;;;;167.95;11.05;;;7.60;99.90;;;;;;5077835;28;20408;-96
2021/12/29 06:29:04;;;;;;;196.45;10.48;;;11.10;99.90;;;;;;5077823;28;20400;-96
2021/12/29 06:31:30;;;;;;;185.25;11.52;;;11.00;99.90;;;;;;5077908;28;20036;-96
2021/12/29 06:33:55;;;;;;;123.07;9.85;;;7.30;99.90;;;;;;5078270;28;20089;-96
2021/12/29 06:36:21;;;;;;;110.53;9.25;;;12.60;99.90;;;;;;5078131;28;20048;-96
2021/12/29 06:38:47;;;;;;;100.80;8.27;;;10.50;99.90;;;;;;5077760;28;20098;-95
2021/12/29 06:41:13;;;;;;;94.35;8.88;;;10.70;99.90;;;;;;5077369;28;20131;-95
2021/12/29 06:43:38;;;;;;;111.68;11.02;;;7.80;99.90;;;;;;5078644;28;20043;-96
2021/12/29 06:46:04;;;;;;;121.38;10.23;;;8.60;99.90;;;;;;5077297;28;20044;-96
2021/12/29 06:48:30;;;;;;;148.10;10.20;;;13.00;99.90;;;;;;5078350;28;20040;-95
2021/12/29 06:50:56;;;;;;;91.30;8.88;;;11.20;99.90;;;;;;5077187;28;20044;-95
2021/12/29 06:53:22;;;;;;;83.30;9.68;;;;;;;;;;5077349;28;20036;-94
2021/12/29 06:55:48;;;;;;;96.80;9.50;;;9.30;99.90;;;;;;5059597;28;20199;-96
2021/12/29 06:58:13;;;;;;;90.82;9.20;;;12.50;99.90;;;;;;5060281;28;20051;-95
2021/12/29 07:00:40;;;;;;;93.25;9.18;;;7.80;99.90;;;;;;5077259;28;20054;-95
2021/12/29 07:03:06;;;;;;;123.40;10.02;;;13.40;99.90;;;;;;5060494;28;20055;-96
2021/12/29 07:05:32;;;;;;;115.80;11.18;;;11.10;99.90;;;;;;5076961;28;20085;-95
2021/12/29 07:07:59;;;;;;;107.40;9.13;;;10.40;99.90;;;;;;5077461;28;20040;-96
2021/12/29 07:10:25;;;;;;;75.93;7.50;;;8.10;99.90;;;;;;5077095;28;20419;-95
2021/12/29 07:12:51;;;;;;;55.30;7.93;;;10.40;99.90;;;;;;5060022;28;20127;-94
2021/12/29 07:15:17;;;;;;;27.40;7.63;;;10.30;99.90;;;;;;5062109;28;20087;-96
2021/12/29 07:17:43;;;;;;;28.30;7.80;;;10.80;99.90;;;;;;5062756;28;20059;-96
2021/12/29 07:20:10;;;;;;;27.33;7.40;;;7.60;99.90;;;;;;5072034;28;20039;-91
2021/12/29 07:22:36;;;;;;;30.65;7.65;;;11.30;99.90;;;;;;5079704;28;20491;-96
2021/12/29 07:25:02;;;;;;;31.40;7.95;;;11.10;99.90;;;;;;5062755;28;20052;-91
2021/12/29 07:27:32;;;;;;;37.75;6.93;;;7.30;99.90;;;;;;5059194;28;20075;-94
2021/12/29 07:29:57;;;;;;;32.80;7.60;;;8.60;99.90;;;;;;5058735;28;20040;-90
2021/12/29 07:32:23;;;;;;;32.42;7.68;;;9.10;99.90;;;;;;5070950;28;20055;-90
2021/12/29 07:34:49;;;;;;;38.90;7.65;;;7.60;99.90;;;;;;5074927;28;20097;-89
2021/12/29 07:37:14;;;;;;;34.20;6.35;;;8.00;99.90;;;;;;5057584;28;20055;-94
2021/12/29 07:39:40;;;;;;;34.53;7.57;;;11.30;99.90;;;;;;5059162;28;20483;-92
2021/12/29 07:42:07;;;;;;;26.80;6.68;;;8.90;99.90;;;;;;5059475;28;20040;-92
2021/12/29 07:44:33;;;;;;;26.13;5.82;;;11.20;99.90;;;;;;5059448;28;20047;-92
2021/12/29 07:46:59;;;;;;;29.98;5.38;;;12.30;99.90;;;;;;5076332;28;20048;-92
2021/12/29 07:49:28;;;;;;;27.25;5.32;;;8.50;99.90;;;;;;5075791;28;20040;-93
2021/12/29 07:51:55;;;;;;;25.27;4.93;;;9.40;99.90;;;;;;5054323;28;20075;-93
2021/12/29 07:54:21;;;;;;;32.88;4.85;;;10.90;99.90;;;;;;5057040;28;20050;-89
2021/12/29 07:56:47;;;;;;;27.10;4.65;;;8.30;99.90;;;;;;5074818;28;20150;-88
2021/12/29 07:59:14;;;;;;;24.20;4.43;;;10.10;99.90;;;;;;5091402;28;20044;-90
2021/12/29 08:01:41;;;;;;;23.23;3.80;;;11.10;99.90;;;;;;5074276;28;20518;-89
2021/12/29 08:04:09;;;;;;;24.25;3.40;;;8.90;99.90;;;;;;5072200;28;20036;-89
2021/12/29 08:06:35;;;;;;;23.88;3.42;;;9.80;99.90;;;;;;5091711;28;20105;-88
2021/12/29 08:09:01;;;;;;;28.55;5.45;;;7.60;99.90;;;;;;5073393;28;20132;-88
2021/12/29 08:11:27;;;;;;;28.38;5.90;;;9.50;99.90;;;;;;5092776;28;20423;-89
2021/12/29 08:13:53;;;;;;;28.88;5.18;;;10.70;99.90;;;;;;5058188;28;20047;-90
2021/12/29 08:16:19;;;;;;;31.75;5.10;;;8.50;99.90;;;;;;5092023;28;20040;-94
2021/12/29 08:18:45;;;;;;;27.88;5.43;;;7.90;99.90;;;;;;5058696;28;20040;-91
2021/12/29 08:21:11;;;;;;;33.85;4.93;;;7.90;99.90;;;;;;5075463;28;20114;-90
2021/12/29 08:23:36;;;;;;;29.92;5.25;;;10.90;99.90;;;;;;5061039;28;20126;-91
2021/12/29 08:26:02;;;;;;;24.20;4.50;;;7.40;99.90;;;;;;5062406;28;20082;-90
2021/12/29 08:28:28;;;;;;;28.20;5.13;;;11.90;99.90;;;;;;5062321;28;20058;-94
2021/12/29 08:30:55;;;;;;;27.45;5.03;;;7.70;99.90;;;;;;5062384;28;20036;-96
2021/12/29 08:33:21;;;;;;;23.98;4.57;;;9.80;99.90;;;;;;5062516;28;20059;-93
2021/12/29 08:35:47;;;;;;;37.28;5.53;;;10.10;99.90;;;;;;5062570;28;20040;-96
2021/12/29 08:38:14;;;;;;;23.30;4.95;;;7.80;99.90;;;;;;5063064;28;20205;-93
2021/12/29 08:40:40;;;;;;;27.10;5.13;;;9.60;99.90;;;;;;5062297;28;20036;-93
2021/12/29 08:43:06;;;;;;;32.03;4.85;;;7.70;99.90;;;;;;5062294;28;20442;-93
2021/12/29 08:45:34;;;;;;;29.02;4.38;;;10.60;99.90;;;;;;5062715;28;20072;-93
2021/12/29 08:48:00;;;;;;;34.30;4.78;;;7.00;99.90;;;;;;5062288;28;20047;-92
2021/12/29 08:50:29;;;;;;;25.02;3.70;;;9.90;99.90;;;;;;5062182;28;20162;-91
2021/12/29 08:52:57;;;;;;;27.08;4.30;;;8.20;99.90;;;;;;5061838;28;20081;-94
2021/12/29 08:55:23;;;;;;;23.80;3.67;;;8.10;99.90;;;;;;5061730;28;20505;-90
2021/12/29 08:57:49;;;;;;;34.63;4.22;;;7.00;99.90;;;;;;5061675;28;20040;-89
2021/12/29 09:00:16;;;;;;;29.85;3.33;;;7.00;99.90;;;;;;5061491;28;20403;-90
2021/12/29 09:02:42;;;;;;;39.15;4.07;;;8.30;99.90;;;;;;5061144;28;20040;-92
2021/12/29 09:05:10;;;;;;;26.58;3.75;;;8.70;99.90;;;;;;5078280;28;20139;-90
2021/12/29 09:07:36;;;;;;;29.33;3.70;;;8.80;99.90;;;;;;5077937;28;20028;-88
2021/12/29 09:10:04;;;;;;;17.45;2.67;;;;;;;;;;5077169;28;20491;-90
2021/12/29 09:12:29;;;;;;;22.83;3.10;;;10.40;99.90;;;;;;5075879;28;20047;-86
2021/12/29 09:14:55;;;;;;;25.58;2.67;;;10.30;99.90;;;;;;5075937;28;20123;-90
2021/12/29 09:17:21;;;;;;;36.00;3.58;;;7.60;99.90;;;;;;5041191;28;20043;-89
2021/12/29 09:19:47;;;;;;;58.85;4.55;;;10.80;99.90;;;;;;5062246;28;20515;-91
2021/12/29 09:22:13;;;;;;;44.42;3.67;;;8.70;99.90;;;;;;5061417;28;20052;-96
2021/12/29 09:24:43;;;;;;;31.08;3.67;;;9.20;99.90;;;;;;5060963;28;20044;-91
2021/12/29 09:27:09;;;;;;;45.80;3.75;;;7.40;99.90;;;;;;5060934;28;20097;-96
2021/12/29 09:29:35;;;;;;;28.70;3.17;;;7.80;99.90;;;;;;5078219;28;20065;-90
2021/12/29 09:32:04;;;;;;;31.27;3.08;;;10.40;99.90;;;;;;5060772;28;20557;-92
2021/12/29 09:34:31;;;;;;;29.70;3.25;;;6.80;99.90;;;;;;5060341;28;20660;-89
2021/12/29 09:36:56;;;;;;;54.97;4.50;;;11.70;99.90;;;;;;5059989;28;20500;-89
2021/12/29 09:39:24;;;;;;;44.08;4.55;;;;;;;;;;5078019;28;20043;-96
2021/12/29 09:41:51;;;;;;;40.17;4.28;;;10.50;99.90;;;;;;5078483;28;20044;-96
2021/12/29 09:44:17;;;;;;;57.55;5.35;;;8.80;99.90;;;;;;5079019;28;20537;-94
2021/12/29 09:46:43;;;;;;;41.13;3.88;;;6.90;99.90;;;;;;5079109;28;20040;-96
2021/12/29 09:49:09;;;;;;;30.40;3.90;;;10.10;99.90;;;;;;5078175;28;20095;-88
2021/12/29 09:51:35;;;;;;;41.65;4.47;;;12.20;99.90;;;;;;5077709;28;20048;-93
2021/12/29 09:54:03;;;;;;;36.90;5.15;;;12.30;99.90;;;;;;5077914;28;20480;-96
2021/12/29 09:56:28;;;;;;;30.63;4.30;;;7.70;99.90;;;;;;5077876;28;20436;-89
2021/12/29 09:58:55;;;;;;;35.78;5.05;;;7.90;99.90;;;;;;5078042;28;20056;-95
2021/12/29 10:01:21;;;;;;;33.80;4.35;;;10.10;99.90;;;;;;5060383;28;20048;-89
2021/12/29 10:03:47;;;;;;;54.78;6.97;;;7.50;99.90;;;;;;5076690;28;20085;-91
2021/12/29 10:06:13;;;;;;;63.70;6.80;;;10.10;99.90;;;;;;5061414;28;20454;-96
2021/12/29 10:08:43;;;;;;;55.47;7.32;;;7.00;99.90;;;;;;5063074;28;20089;-94
2021/12/29 10:11:14;;;;;;;26.80;4.95;;;9.20;99.90;;;;;;5052927;28;20042;-93
2021/12/29 10:13:43;;;;;;;36.03;5.72;;;7.10;99.90;;;;;;5067168;28;20039;-89
2021/12/29 10:16:16;;;;;;;45.53;5.95;;;9.70;99.90;;;;;;5076152;28;20048;-90
2021/12/29 10:18:43;;;;;;;25.33;5.13;;;8.30;99.90;;;;;;5057213;28;20075;-89
2021/12/29 10:21:12;;;;;;;28.40;5.10;;;7.50;99.90;;;;;;5075045;28;20092;-89
2021/12/29 10:23:44;;;;;;;31.90;5.15;;;10.20;99.90;;;;;;5070898;28;20082;-91
2021/12/29 10:26:16;;;;;;;39.38;6.43;;;10.60;99.90;;;;;;5078163;28;20120;-89
2021/12/29 10:28:48;;;;;;;34.42;5.53;;;10.00;99.90;;;;;;5079483;28;20130;-90
2021/12/29 10:31:19;;;;;;;29.85;5.47;;;7.70;99.90;;;;;;5074858;28;20043;-92
2021/12/29 10:33:49;;;;;;;24.15;4.32;;;7.90;99.90;;;;;;5059166;28;20048;-87
2021/12/29 10:36:23;;;;;;;39.60;5.97;;;9.20;99.90;;;;;;5055706;28;20123;-90
2021/12/29 10:39:06;;;;;;;29.95;5.03;;;10.50;99.90;;;;;;5059138;28;20044;-92
2021/12/29 10:41:44;;;;;;;29.40;5.53;;;10.30;99.90;;;;;;5076776;28;20122;-95
2021/12/29 10:44:12;;;;;;;28.35;4.93;;;10.80;99.90;;;;;;5060907;28;20044;-90
2021/12/29 10:46:38;;;;;;;40.58;5.07;;;12.00;99.90;;;;;;5091450;28;20048;-89
2021/12/29 10:49:10;;;;;;;25.73;5.13;;;12.20;99.90;;;;;;5066989;28;20046;-96
2021/12/29 10:51:40;;;;;;;33.85;5.00;;;10.40;99.90;;;;;;5080654;28;20407;-91
2021/12/29 10:54:08;;;;;;;23.20;4.22;;;10.00;99.90;;;;;;5059654;28;20044;-87
2021/12/29 10:56:34;;;;;;;30.17;4.57;;;8.10;99.90;;;;;;5059182;28;20099;-91
2021/12/29 10:59:13;;;;;;;32.55;4.65;;;12.40;99.90;;;;;;5075542;28;20040;-90
2021/12/29 11:01:38;;;;;;;36.30;5.30;;;9.60;99.90;;;;;;5059923;28;20048;-92
2021/12/29 11:04:04;;;;;;;24.40;4.45;;;9.80;99.90;;;;;;5059811;28;20553;-91
2021/12/29 11:06:38;;;;;;;28.42;4.70;;;11.30;99.90;;;;;;5059649;28;20053;-91
2021/12/29 11:09:03;;;;;;;23.15;4.40;;;10.30;99.90;;;;;;5059355;28;20051;-92
2021/12/29 11:11:36;;;;;;;21.92;4.10;;;11.00;99.90;;;;;;5059959;28;20048;-90
2021/12/29 11:14:07;;;;;;;28.05;4.65;;;9.90;99.90;;;;;;5084046;28;20043;-89
2021/12/29 11:16:33;;;;;;;23.13;4.63;;;10.10;99.90;;;;;;5058748;28;20127;-88
2021/12/29 11:18:59;;;;;;;21.92;4.78;;;9.70;99.90;;;;;;5057843;28;20128;-88
2021/12/29 11:21:32;;;;;;;23.80;4.57;;;9.20;99.90;;;;;;5059503;28;20043;-93
2021/12/29 11:24:12;;;;;;;27.98;5.28;;;9.40;99.90;;;;;;5058438;28;20063;-94
2021/12/29 11:26:38;;;;;;;27.63;5.03;;;9.20;99.90;;;;;;5057871;28;20040;-93
2021/12/29 11:29:07;;;;;;;25.15;5.10;;;10.70;99.90;;;;;;5058892;28;20128;-92
2021/12/29 11:31:37;;;;;;;22.42;4.57;;;9.90;99.90;;;;;;5057613;28;20055;-92
2021/12/29 11:34:17;;;;;;;21.25;4.70;;;9.20;99.90;;;;;;5058283;28;20048;-89
2021/12/29 11:36:44;;;;;;;19.58;5.00;;;10.00;99.90;;;;;;5058135;28;20044;-95
2021/12/29 11:39:10;;;;;;;29.55;5.30;;;8.80;99.90;;;;;;5058532;28;20487;-93
2021/12/29 11:41:36;;;;;;;25.13;5.47;;;9.80;99.90;;;;;;5057899;28;20058;-92
2021/12/29 11:44:02;;;;;;;13.40;4.65;;;9.40;99.90;;;;;;5058264;28;20484;-92
2021/12/29 11:46:28;;;;;;;14.35;4.57;;;8.20;99.90;;;;;;5058534;28;20107;-94
2021/12/29 11:48:54;;;;;;;13.63;4.88;;;8.80;99.90;;;;;;5058265;28;20516;-94
2021/12/29 11:51:34;;;;;;;19.77;5.03;;;9.70;99.90;;;;;;5058241;28;20050;-93
2021/12/29 11:54:13;;;;;;;17.60;4.43;;;8.70;99.90;;;;;;5061245;28;20136;-94
2021/12/29 11:56:41;;;;;;;18.63;4.40;;;8.80;99.90;;;;;;5060166;28;20399;-93
2021/12/29 11:59:09;;;;;;;16.90;4.38;;;9.60;99.90;;;;;;5062244;28;20044;-93
2021/12/29 12:01:35;;;;;;;12.90;4.43;;;11.30;99.90;;;;;;5063686;28;20458;-89
2021/12/29 12:04:04;;;;;;;21.02;4.75;;;8.80;99.90;;;;;;5062770;28;20102;-90
2021/12/29 12:06:38;;;;;;;14.13;4.60;;;9.20;99.90;;;;;;5078996;28;20097;-88
2021/12/29 12:09:09;;;;;;;17.45;5.47;;;9.60;99.90;;;;;;5079426;28;20451;-87
2021/12/29 12:11:37;;;;;;;14.55;4.65;;;9.50;99.90;;;;;;5062008;28;20044;-86
2021/12/29 12:14:15;;;;;;;17.85;5.03;;;8.90;99.90;;;;;;5078834;28;20051;-88
2021/12/29 12:16:49;;;;;;;21.40;5.72;;;8.90;99.90;;;;;;5078608;28;20036;-88
2021/12/29 12:19:20;;;;;;;15.23;4.88;;;8.00;99.90;;;;;;5054493;28;20036;-89
2021/12/29 12:22:13;;;;;;;17.77;5.40;;;9.50;99.90;;;;;;5061051;28;20113;-90
2021/12/29 12:24:56;;;;;;;19.33;5.47;;;9.00;99.90;;;;;;5038339;28;20103;-92
2021/12/29 12:27:37;;;;;;;21.63;5.07;;;9.00;99.90;;;;;;5038509;28;20546;-90
2021/12/29 12:30:07;;;;;;;18.98;5.10;;;9.60;99.90;;;;;;5041836;28;20127;-89
2021/12/29 12:32:44;;;;;;;12.02;5.22;;;9.60;99.90;;;;;;5057858;28;20080;-89
2021/12/29 12:35:11;;;;;;;15.93;5.00;;;9.50;99.90;;;;;;5058993;28;20054;-92
2021/12/29 12:37:41;;;;;;;14.77;5.57;;;9.60;99.90;;;;;;5059185;28;20044;-91
2021/12/29 12:40:11;;;;;;;12.90;5.57;;;9.40;99.90;;;;;;5059315;28;20084;-90
2021/12/29 12:42:39;;;;;;;19.08;5.35;;;9.20;99.90;;;;;;5058585;28;20045;-91
2021/12/29 12:45:17;;;;;;;20.40;6.38;;;10.90;99.90;;;;;;5058638;28;20400;-88
2021/12/29 12:47:43;;;;;;;13.93;6.07;;;11.10;99.90;;;;;;5058090;28;20047;-86